sensor_id;sensor_type;location;lat;lon;timestamp;pressure;altitude;pressure_sealevel;temperature;humidity
16255;BME280;8235;52.198;9.904;2023-04-26T00:00:44;100881.06;;;4.10;76.33
16255;BME280;8235;52.198;9.904;2023-04-26T00:03:12;100887.25;;;4.09;76.04
16255;BME280;8235;52.198;9.904;2023-04-26T00:05:39;100892.63;;;4.06;76.82
16255;BME280;8235;52.198;9.904;2023-04-26T00:08:05;100886.53;;;4.04;76.95
16255;BME280;8235;52.198;9.904;2023-04-26T00:10:32;100887.44;;;4.03;76.62
16255;BME280;8235;52.198;9.904;2023-04-26T00:12:58;100884.03;;;4.00;76.45
16255;BME280;8235;52.198;9.904;2023-04-26T00:15:25;100886.78;;;3.97;76.52
16255;BME280;8235;52.198;9.904;2023-04-26T00:17:51;100891.19;;;3.96;76.71
16255;BME280;8235;52.198;9.904;2023-04-26T00:20:19;100889.44;;;3.95;77.30
16255;BME280;8235;52.198;9.904;2023-04-26T00:22:46;100894.84;;;3.92;76.93
16255;BME280;8235;52.198;9.904;2023-04-26T00:25:12;100894.94;;;3.89;76.87
16255;BME280;8235;52.198;9.904;2023-04-26T00:27:39;100893.25;;;3.87;76.72
16255;BME280;8235;52.198;9.904;2023-04-26T00:30:06;100891.59;;;3.84;77.11
16255;BME280;8235;52.198;9.904;2023-04-26T00:32:33;100896.94;;;3.81;77.66
16255;BME280;8235;52.198;9.904;2023-04-26T00:35:02;100900.47;;;3.80;77.85
16255;BME280;8235;52.198;9.904;2023-04-26T00:37:30;100887.41;;;3.77;77.22
16255;BME280;8235;52.198;9.904;2023-04-26T00:39:56;100891.88;;;3.75;78.01
16255;BME280;8235;52.198;9.904;2023-04-26T00:42:23;100896.34;;;3.73;78.29
16255;BME280;8235;52.198;9.904;2023-04-26T00:44:49;100892.94;;;3.69;78.12
16255;BME280;8235;52.198;9.904;2023-04-26T00:47:19;100895.59;;;3.68;77.57
16255;BME280;8235;52.198;9.904;2023-04-26T00:49:46;100896.50;;;3.67;77.88
16255;BME280;8235;52.198;9.904;2023-04-26T00:52:13;100893.97;;;3.64;78.73
16255;BME280;8235;52.198;9.904;2023-04-26T00:54:40;100899.34;;;3.61;78.55
16255;BME280;8235;52.198;9.904;2023-04-26T00:57:07;100894.09;;;3.59;78.41
16255;BME280;8235;52.198;9.904;2023-04-26T00:59:34;100898.59;;;3.57;79.25
16255;BME280;8235;52.198;9.904;2023-04-26T01:02:01;100893.41;;;3.54;79.04
16255;BME280;8235;52.198;9.904;2023-04-26T01:04:28;100898.72;;;3.53;78.75
16255;BME280;8235;52.198;9.904;2023-04-26T01:06:55;100890.88;;;3.51;79.42
16255;BME280;8235;52.198;9.904;2023-04-26T01:09:21;100897.94;;;3.49;79.49
16255;BME280;8235;52.198;9.904;2023-04-26T01:11:50;100897.16;;;3.45;79.77
16255;BME280;8235;52.198;9.904;2023-04-26T01:14:17;100903.34;;;3.44;79.88
16255;BME280;8235;52.198;9.904;2023-04-26T01:16:44;100899.88;;;3.42;79.55
16255;BME280;8235;52.198;9.904;2023-04-26T01:19:12;100903.44;;;3.41;79.92
16255;BME280;8235;52.198;9.904;2023-04-26T01:21:39;100915.84;;;3.38;80.26
16255;BME280;8235;52.198;9.904;2023-04-26T01:24:08;100912.34;;;3.37;80.77
16255;BME280;8235;52.198;9.904;2023-04-26T01:26:35;100912.41;;;3.36;80.64
16255;BME280;8235;52.198;9.904;2023-04-26T01:29:12;100912.47;;;3.33;80.48
16255;BME280;8235;52.198;9.904;2023-04-26T01:31:38;100909.88;;;3.31;80.01
16255;BME280;8235;52.198;9.904;2023-04-26T01:34:05;100909.97;;;3.28;80.90
16255;BME280;8235;52.198;9.904;2023-04-26T01:36:31;100912.69;;;3.25;80.49
16255;BME280;8235;52.198;9.904;2023-04-26T01:38:58;100911.88;;;3.23;81.18
16255;BME280;8235;52.198;9.904;2023-04-26T01:41:25;100909.31;;;3.22;81.36
16255;BME280;8235;52.198;9.904;2023-04-26T01:43:52;100911.13;;;3.20;80.37
16255;BME280;8235;52.198;9.904;2023-04-26T01:46:20;100916.44;;;3.18;81.45
16255;BME280;8235;52.198;9.904;2023-04-26T01:48:47;100910.28;;;3.18;81.36
16255;BME280;8235;52.198;9.904;2023-04-26T01:51:13;100917.38;;;3.16;81.24
16255;BME280;8235;52.198;9.904;2023-04-26T01:53:40;100909.50;;;3.14;80.89
16255;BME280;8235;52.198;9.904;2023-04-26T01:56:07;100906.97;;;3.11;81.38
16255;BME280;8235;52.198;9.904;2023-04-26T01:58:35;100908.72;;;3.10;80.99
16255;BME280;8235;52.198;9.904;2023-04-26T02:01:04;100907.00;;;3.09;81.33
16255;BME280;8235;52.198;9.904;2023-04-26T02:03:31;100910.59;;;3.07;81.10
16255;BME280;8235;52.198;9.904;2023-04-26T02:05:57;100905.38;;;3.05;81.82
16255;BME280;8235;52.198;9.904;2023-04-26T02:08:24;100903.72;;;3.03;82.08
16255;BME280;8235;52.198;9.904;2023-04-26T02:10:50;100908.09;;;3.02;82.36
16255;BME280;8235;52.198;9.904;2023-04-26T02:13:17;100912.53;;;3.00;82.34
16255;BME280;8235;52.198;9.904;2023-04-26T02:15:46;100916.09;;;2.99;81.92
16255;BME280;8235;52.198;9.904;2023-04-26T02:18:13;100912.63;;;2.97;82.72
16255;BME280;8235;52.198;9.904;2023-04-26T02:20:40;100904.81;;;2.94;82.47
16255;BME280;8235;52.198;9.904;2023-04-26T02:23:07;100910.06;;;2.94;82.47
16255;BME280;8235;52.198;9.904;2023-04-26T02:25:33;100918.91;;;2.92;82.36
16255;BME280;8235;52.198;9.904;2023-04-26T02:28:00;100911.97;;;2.89;82.70
16255;BME280;8235;52.198;9.904;2023-04-26T02:30:26;100907.59;;;2.88;82.79
16255;BME280;8235;52.198;9.904;2023-04-26T02:32:54;100906.75;;;2.88;83.04
16255;BME280;8235;52.198;9.904;2023-04-26T02:35:21;100918.25;;;2.85;82.41
16255;BME280;8235;52.198;9.904;2023-04-26T02:37:48;100912.13;;;2.85;83.00
16255;BME280;8235;52.198;9.904;2023-04-26T02:40:16;100915.69;;;2.82;82.89
16255;BME280;8235;52.198;9.904;2023-04-26T02:42:43;100919.22;;;2.81;83.04
16255;BME280;8235;52.198;9.904;2023-04-26T02:45:10;100917.53;;;2.78;83.06
16255;BME280;8235;52.198;9.904;2023-04-26T02:47:36;100919.28;;;2.78;82.78
16255;BME280;8235;52.198;9.904;2023-04-26T02:50:05;100916.69;;;2.76;83.39
16255;BME280;8235;52.198;9.904;2023-04-26T02:52:32;100914.97;;;2.75;82.81
16255;BME280;8235;52.198;9.904;2023-04-26T02:54:59;100918.56;;;2.73;82.97
16255;BME280;8235;52.198;9.904;2023-04-26T02:57:26;100914.19;;;2.72;83.80
16255;BME280;8235;52.198;9.904;2023-04-26T02:59:53;100921.25;;;2.70;82.98
16255;BME280;8235;52.198;9.904;2023-04-26T03:02:20;100909.06;;;2.67;83.64
16255;BME280;8235;52.198;9.904;2023-04-26T03:04:46;100908.19;;;2.68;83.38
16255;BME280;8235;52.198;9.904;2023-04-26T03:07:14;100915.25;;;2.66;83.10
16255;BME280;8235;52.198;9.904;2023-04-26T03:09:41;100914.41;;;2.64;84.03
16255;BME280;8235;52.198;9.904;2023-04-26T03:12:08;100912.69;;;2.63;83.86
16255;BME280;8235;52.198;9.904;2023-04-26T03:14:34;100912.69;;;2.63;84.07
16255;BME280;8235;52.198;9.904;2023-04-26T03:17:01;100910.06;;;2.63;83.82
16255;BME280;8235;52.198;9.904;2023-04-26T03:19:28;100905.69;;;2.62;84.39
16255;BME280;8235;52.198;9.904;2023-04-26T03:21:54;100911.91;;;2.60;84.38
16255;BME280;8235;52.198;9.904;2023-04-26T03:24:22;100904.03;;;2.58;83.88
16255;BME280;8235;52.198;9.904;2023-04-26T03:26:49;100910.16;;;2.59;84.10
16255;BME280;8235;52.198;9.904;2023-04-26T03:29:16;100908.47;;;2.56;84.04
16255;BME280;8235;52.198;9.904;2023-04-26T03:31:42;100912.91;;;2.54;83.97
16255;BME280;8235;52.198;9.904;2023-04-26T03:34:09;100907.66;;;2.54;84.24
16255;BME280;8235;52.198;9.904;2023-04-26T03:36:35;100907.69;;;2.53;84.69
16255;BME280;8235;52.198;9.904;2023-04-26T03:39:02;100907.72;;;2.51;83.97
16255;BME280;8235;52.198;9.904;2023-04-26T03:41:31;100919.09;;;2.52;84.01
16255;BME280;8235;52.198;9.904;2023-04-26T03:44:00;100914.78;;;2.51;84.33
16255;BME280;8235;52.198;9.904;2023-04-26T03:46:26;100914.81;;;2.49;84.88
16255;BME280;8235;52.198;9.904;2023-04-26T03:48:52;100923.59;;;2.48;84.85
16255;BME280;8235;52.198;9.904;2023-04-26T03:51:19;100918.44;;;2.45;84.90
16255;BME280;8235;52.198;9.904;2023-04-26T03:53:46;100917.59;;;2.43;84.29
16255;BME280;8235;52.198;9.904;2023-04-26T03:56:13;100938.66;;;2.41;85.22
16255;BME280;8235;52.198;9.904;2023-04-26T03:58:42;100929.09;;;2.39;84.75
16255;BME280;8235;52.198;9.904;2023-04-26T04:01:08;100920.34;;;2.38;84.81
16255;BME280;8235;52.198;9.904;2023-04-26T04:03:34;100924.75;;;2.36;84.99
16255;BME280;8235;52.198;9.904;2023-04-26T04:06:01;100924.81;;;2.35;85.90
16255;BME280;8235;52.198;9.904;2023-04-26T04:08:28;100924.00;;;2.33;86.10
16255;BME280;8235;52.198;9.904;2023-04-26T04:10:54;100923.06;;;2.34;85.49
16255;BME280;8235;52.198;9.904;2023-04-26T04:13:21;100917.81;;;2.34;85.57
16255;BME280;8235;52.198;9.904;2023-04-26T04:15:50;100921.38;;;2.33;85.57
16255;BME280;8235;52.198;9.904;2023-04-26T04:18:16;100925.69;;;2.34;86.17
16255;BME280;8235;52.198;9.904;2023-04-26T04:20:43;100937.94;;;2.35;86.71
16255;BME280;8235;52.198;9.904;2023-04-26T04:23:10;100936.19;;;2.35;86.76
16255;BME280;8235;52.198;9.904;2023-04-26T04:25:36;100929.19;;;2.34;86.70
16255;BME280;8235;52.198;9.904;2023-04-26T04:28:03;100933.50;;;2.37;86.76
16255;BME280;8235;52.198;9.904;2023-04-26T04:30:30;100929.16;;;2.36;86.57
16255;BME280;8235;52.198;9.904;2023-04-26T04:32:58;100932.69;;;2.35;87.14
16255;BME280;8235;52.198;9.904;2023-04-26T04:35:25;100935.31;;;2.35;87.15
16255;BME280;8235;52.198;9.904;2023-04-26T04:37:53;100930.03;;;2.36;87.51
16255;BME280;8235;52.198;9.904;2023-04-26T04:40:20;100937.00;;;2.37;87.56
16255;BME280;8235;52.198;9.904;2023-04-26T04:42:47;100945.75;;;2.38;87.52
16255;BME280;8235;52.198;9.904;2023-04-26T04:45:14;100936.06;;;2.40;87.84
16255;BME280;8235;52.198;9.904;2023-04-26T04:47:41;100945.66;;;2.42;87.75
16255;BME280;8235;52.198;9.904;2023-04-26T04:50:10;100942.94;;;2.46;87.10
16255;BME280;8235;52.198;9.904;2023-04-26T04:52:37;100928.88;;;2.48;87.76
16255;BME280;8235;52.198;9.904;2023-04-26T04:55:04;100941.06;;;2.51;87.39
16255;BME280;8235;52.198;9.904;2023-04-26T04:57:30;100939.19;;;2.54;87.88
16255;BME280;8235;52.198;9.904;2023-04-26T04:59:57;100940.84;;;2.58;88.18
16255;BME280;8235;52.198;9.904;2023-04-26T05:02:31;100937.28;;;2.61;87.87
16255;BME280;8235;52.198;9.904;2023-04-26T05:04:57;100939.81;;;2.65;88.08
16255;BME280;8235;52.198;9.904;2023-04-26T05:07:26;100933.53;;;2.69;88.82
16255;BME280;8235;52.198;9.904;2023-04-26T05:09:53;100936.97;;;2.73;87.91
16255;BME280;8235;52.198;9.904;2023-04-26T05:12:20;100934.22;;;2.77;88.56
16255;BME280;8235;52.198;9.904;2023-04-26T05:14:46;100938.50;;;2.82;88.70
16255;BME280;8235;52.198;9.904;2023-04-26T05:17:13;100936.66;;;2.85;88.31
16255;BME280;8235;52.198;9.904;2023-04-26T05:19:39;100941.84;;;2.87;88.21
16255;BME280;8235;52.198;9.904;2023-04-26T05:22:06;100942.66;;;2.89;88.05
16255;BME280;8235;52.198;9.904;2023-04-26T05:24:33;100951.41;;;2.89;88.54
16255;BME280;8235;52.198;9.904;2023-04-26T05:27:01;100946.16;;;2.89;88.23
16255;BME280;8235;52.198;9.904;2023-04-26T05:29:28;100952.28;;;2.90;87.36
16255;BME280;8235;52.198;9.904;2023-04-26T05:31:55;100949.56;;;2.93;87.43
16255;BME280;8235;52.198;9.904;2023-04-26T05:34:22;100954.69;;;2.99;88.22
16255;BME280;8235;52.198;9.904;2023-04-26T05:36:48;100958.00;;;3.05;87.65
16255;BME280;8235;52.198;9.904;2023-04-26T05:39:15;100959.56;;;3.12;88.00
16255;BME280;8235;52.198;9.904;2023-04-26T05:41:44;100964.63;;;3.20;87.91
16255;BME280;8235;52.198;9.904;2023-04-26T05:44:11;100968.75;;;3.29;87.64
16255;BME280;8235;52.198;9.904;2023-04-26T05:46:38;100968.47;;;3.39;88.19
16255;BME280;8235;52.198;9.904;2023-04-26T05:49:05;100978.66;;;3.50;87.65
16255;BME280;8235;52.198;9.904;2023-04-26T05:51:31;100979.19;;;3.61;87.81
16255;BME280;8235;52.198;9.904;2023-04-26T05:53:57;100983.22;;;3.74;87.75
16255;BME280;8235;52.198;9.904;2023-04-26T05:56:24;100977.56;;;3.87;88.08
16255;BME280;8235;52.198;9.904;2023-04-26T05:58:52;100977.09;;;4.02;88.00
16255;BME280;8235;52.198;9.904;2023-04-26T06:01:18;100987.25;;;4.14;86.69
16255;BME280;8235;52.198;9.904;2023-04-26T06:03:45;100988.75;;;4.23;86.46
16255;BME280;8235;52.198;9.904;2023-04-26T06:06:11;100986.50;;;4.37;85.97
16255;BME280;8235;52.198;9.904;2023-04-26T06:08:41;100986.09;;;4.49;86.08
16255;BME280;8235;52.198;9.904;2023-04-26T06:11:07;100982.22;;;4.61;85.15
16255;BME280;8235;52.198;9.904;2023-04-26T06:13:34;100989.81;;;4.70;84.56
16255;BME280;8235;52.198;9.904;2023-04-26T06:16:02;100976.28;;;4.80;84.53
16255;BME280;8235;52.198;9.904;2023-04-26T06:18:28;100976.75;;;4.92;83.77
16255;BME280;8235;52.198;9.904;2023-04-26T06:20:55;100977.22;;;5.03;83.08
16255;BME280;8235;52.198;9.904;2023-04-26T06:23:21;100980.47;;;5.11;82.43
16255;BME280;8235;52.198;9.904;2023-04-26T06:25:47;100984.44;;;5.22;82.11
16255;BME280;8235;52.198;9.904;2023-04-26T06:28:14;100978.84;;;5.32;81.28
16255;BME280;8235;52.198;9.904;2023-04-26T06:30:41;100974.00;;;5.43;80.75
16255;BME280;8235;52.198;9.904;2023-04-26T06:33:09;100987.88;;;5.49;79.73
16255;BME280;8235;52.198;9.904;2023-04-26T06:35:38;100985.06;;;5.54;78.85
16255;BME280;8235;52.198;9.904;2023-04-26T06:38:05;100987.63;;;5.55;78.26
16255;BME280;8235;52.198;9.904;2023-04-26T06:40:32;100992.78;;;5.58;77.83
16255;BME280;8235;52.198;9.904;2023-04-26T06:42:59;100988.97;;;5.67;78.26
16255;BME280;8235;52.198;9.904;2023-04-26T06:45:26;100987.69;;;5.77;77.64
16255;BME280;8235;52.198;9.904;2023-04-26T06:47:52;100987.34;;;5.86;77.45
16255;BME280;8235;52.198;9.904;2023-04-26T06:50:20;100986.13;;;5.95;76.69
16255;BME280;8235;52.198;9.904;2023-04-26T06:52:47;100985.69;;;6.07;76.80
16255;BME280;8235;52.198;9.904;2023-04-26T06:55:13;100989.56;;;6.20;76.23
16255;BME280;8235;52.198;9.904;2023-04-26T06:57:40;100992.63;;;6.32;75.54
16255;BME280;8235;52.198;9.904;2023-04-26T07:00:07;100984.31;;;6.41;74.20
16255;BME280;8235;52.198;9.904;2023-04-26T07:02:34;100997.09;;;6.51;74.05
16255;BME280;8235;52.198;9.904;2023-04-26T07:05:01;100990.44;;;6.63;73.09
16255;BME280;8235;52.198;9.904;2023-04-26T07:07:29;100989.94;;;6.75;72.94
16255;BME280;8235;52.198;9.904;2023-04-26T07:09:55;100999.06;;;6.88;72.56
16255;BME280;8235;52.198;9.904;2023-04-26T07:12:22;100991.34;;;7.04;72.33
16255;BME280;8235;52.198;9.904;2023-04-26T07:14:48;100983.84;;;7.14;71.48
16255;BME280;8235;52.198;9.904;2023-04-26T07:17:15;100984.38;;;7.22;70.17
16255;BME280;8235;52.198;9.904;2023-04-26T07:19:41;100991.19;;;7.27;69.90
16255;BME280;8235;52.198;9.904;2023-04-26T07:22:08;101000.38;;;7.39;70.07
16255;BME280;8235;52.198;9.904;2023-04-26T07:24:36;100993.69;;;7.51;69.50
16255;BME280;8235;52.198;9.904;2023-04-26T07:27:02;100994.78;;;7.65;69.30
16255;BME280;8235;52.198;9.904;2023-04-26T07:29:29;100986.31;;;7.76;68.76
16255;BME280;8235;52.198;9.904;2023-04-26T07:31:55;100994.72;;;7.86;67.97
16255;BME280;8235;52.198;9.904;2023-04-26T07:34:23;100998.66;;;7.96;67.31
16255;BME280;8235;52.198;9.904;2023-04-26T07:36:49;101000.09;;;8.03;66.54
16255;BME280;8235;52.198;9.904;2023-04-26T07:39:17;100998.22;;;8.05;65.78
16255;BME280;8235;52.198;9.904;2023-04-26T07:41:45;101000.94;;;8.04;65.66
16255;BME280;8235;52.198;9.904;2023-04-26T07:44:11;101001.81;;;8.04;65.78
16255;BME280;8235;52.198;9.904;2023-04-26T07:46:38;101001.88;;;8.02;65.31
16255;BME280;8235;52.198;9.904;2023-04-26T07:49:04;100991.47;;;7.98;64.32
16255;BME280;8235;52.198;9.904;2023-04-26T07:51:31;101002.44;;;7.90;64.38
16255;BME280;8235;52.198;9.904;2023-04-26T07:53:58;100988.56;;;7.85;64.38
16255;BME280;8235;52.198;9.904;2023-04-26T07:56:24;100999.50;;;7.78;64.40
16255;BME280;8235;52.198;9.904;2023-04-26T07:58:52;101000.63;;;7.72;64.32
16255;BME280;8235;52.198;9.904;2023-04-26T08:01:18;100997.34;;;7.67;63.47
16255;BME280;8235;52.198;9.904;2023-04-26T08:03:45;100999.94;;;7.69;64.19
16255;BME280;8235;52.198;9.904;2023-04-26T08:06:13;101005.81;;;7.75;64.68
16255;BME280;8235;52.198;9.904;2023-04-26T08:08:39;100997.44;;;7.84;63.90
16255;BME280;8235;52.198;9.904;2023-04-26T08:11:09;100994.19;;;7.96;63.77
16255;BME280;8235;52.198;9.904;2023-04-26T08:13:35;100991.03;;;8.07;63.01
16255;BME280;8235;52.198;9.904;2023-04-26T08:16:04;101002.88;;;8.19;62.20
16255;BME280;8235;52.198;9.904;2023-04-26T08:18:30;100997.34;;;8.23;61.61
16255;BME280;8235;52.198;9.904;2023-04-26T08:20:57;101006.25;;;8.22;59.82
16255;BME280;8235;52.198;9.904;2023-04-26T08:23:24;101005.53;;;8.19;60.11
16255;BME280;8235;52.198;9.904;2023-04-26T08:25:50;101000.34;;;8.16;60.29
16255;BME280;8235;52.198;9.904;2023-04-26T08:28:17;100994.69;;;8.23;61.06
16255;BME280;8235;52.198;9.904;2023-04-26T08:30:43;100998.75;;;8.30;59.82
16255;BME280;8235;52.198;9.904;2023-04-26T08:33:11;100990.31;;;8.41;59.43
16255;BME280;8235;52.198;9.904;2023-04-26T08:35:37;100991.34;;;8.56;59.68
16255;BME280;8235;52.198;9.904;2023-04-26T08:38:04;100998.78;;;8.66;57.99
16255;BME280;8235;52.198;9.904;2023-04-26T08:40:30;101002.00;;;8.73;57.03
16255;BME280;8235;52.198;9.904;2023-04-26T08:42:57;100994.34;;;8.84;58.21
16255;BME280;8235;52.198;9.904;2023-04-26T08:45:24;100996.22;;;8.99;57.86
16255;BME280;8235;52.198;9.904;2023-04-26T08:47:52;100995.81;;;9.07;56.25
16255;BME280;8235;52.198;9.904;2023-04-26T08:50:22;100999.50;;;9.04;55.72
16255;BME280;8235;52.198;9.904;2023-04-26T08:52:50;100995.97;;;9.04;55.79
16255;BME280;8235;52.198;9.904;2023-04-26T08:55:18;100994.25;;;9.03;55.06
16255;BME280;8235;52.198;9.904;2023-04-26T08:57:46;101006.69;;;9.02;55.05
16255;BME280;8235;52.198;9.904;2023-04-26T09:00:14;100996.91;;;9.03;55.53
16255;BME280;8235;52.198;9.904;2023-04-26T09:02:44;100992.16;;;9.10;54.92
16255;BME280;8235;52.198;9.904;2023-04-26T09:05:11;100995.97;;;9.21;54.39
16255;BME280;8235;52.198;9.904;2023-04-26T09:07:41;100997.28;;;9.30;54.19
16255;BME280;8235;52.198;9.904;2023-04-26T09:10:09;100998.59;;;9.38;54.32
16255;BME280;8235;52.198;9.904;2023-04-26T09:12:36;101000.22;;;9.41;53.73
16255;BME280;8235;52.198;9.904;2023-04-26T09:15:03;101000.16;;;9.43;53.08
16255;BME280;8235;52.198;9.904;2023-04-26T09:17:33;101004.53;;;9.44;53.27
16255;BME280;8235;52.198;9.904;2023-04-26T09:20:09;101007.13;;;9.45;52.39
16255;BME280;8235;52.198;9.904;2023-04-26T09:22:44;100998.28;;;9.45;52.36
16255;BME280;8235;52.198;9.904;2023-04-26T09:25:11;101003.59;;;9.45;52.07
16255;BME280;8235;52.198;9.904;2023-04-26T09:27:39;100994.25;;;9.53;52.75
16255;BME280;8235;52.198;9.904;2023-04-26T09:30:10;100995.41;;;9.65;52.77
16255;BME280;8235;52.198;9.904;2023-04-26T09:32:49;101001.09;;;9.74;52.40
16255;BME280;8235;52.198;9.904;2023-04-26T09:35:27;100997.31;;;9.79;51.17
16255;BME280;8235;52.198;9.904;2023-04-26T09:37:57;101002.56;;;9.80;50.93
16255;BME280;8235;52.198;9.904;2023-04-26T09:40:29;101002.47;;;9.82;51.34
16255;BME280;8235;52.198;9.904;2023-04-26T09:43:01;100999.47;;;9.88;50.98
16255;BME280;8235;52.198;9.904;2023-04-26T09:45:29;101000.16;;;9.91;50.72
16255;BME280;8235;52.198;9.904;2023-04-26T09:48:11;101001.19;;;9.89;50.22
16255;BME280;8235;52.198;9.904;2023-04-26T09:50:38;100997.75;;;9.87;49.40
16255;BME280;8235;52.198;9.904;2023-04-26T09:53:06;100992.25;;;9.90;48.96
16255;BME280;8235;52.198;9.904;2023-04-26T09:55:32;100999.31;;;9.91;48.71
16255;BME280;8235;52.198;9.904;2023-04-26T09:58:07;101002.31;;;9.85;48.35
16255;BME280;8235;52.198;9.904;2023-04-26T10:00:33;101004.13;;;9.84;48.50
16255;BME280;8235;52.198;9.904;2023-04-26T10:03:03;101014.06;;;9.81;47.95
16255;BME280;8235;52.198;9.904;2023-04-26T10:05:31;101005.31;;;9.79;48.36
16255;BME280;8235;52.198;9.904;2023-04-26T10:07:57;101006.41;;;9.74;48.37
16255;BME280;8235;52.198;9.904;2023-04-26T10:10:25;101013.44;;;9.75;49.22
16255;BME280;8235;52.198;9.904;2023-04-26T10:12:52;101010.53;;;9.80;49.36
16255;BME280;8235;52.198;9.904;2023-04-26T10:15:18;101016.72;;;9.81;49.86
16255;BME280;8235;52.198;9.904;2023-04-26T10:17:45;101007.19;;;9.77;49.46
16255;BME280;8235;52.198;9.904;2023-04-26T10:20:13;101017.03;;;9.74;50.16
16255;BME280;8235;52.198;9.904;2023-04-26T10:22:44;101012.66;;;9.73;50.47
16255;BME280;8235;52.198;9.904;2023-04-26T10:25:11;101009.59;;;9.81;50.60
16255;BME280;8235;52.198;9.904;2023-04-26T10:27:49;101005.13;;;9.82;50.73
16255;BME280;8235;52.198;9.904;2023-04-26T10:30:18;101007.63;;;9.85;50.48
16255;BME280;8235;52.198;9.904;2023-04-26T10:33:15;101004.63;;;9.91;50.50
16255;BME280;8235;52.198;9.904;2023-04-26T10:36:05;100995.22;;;10.01;50.71
16255;BME280;8235;52.198;9.904;2023-04-26T10:38:33;101000.25;;;10.05;50.54
16255;BME280;8235;52.198;9.904;2023-04-26T10:41:32;100998.28;;;10.09;49.18
16255;BME280;8235;52.198;9.904;2023-04-26T10:44:38;100989.69;;;10.04;48.35
16255;BME280;8235;52.198;9.904;2023-04-26T10:47:05;100997.00;;;10.00;48.01
16255;BME280;8235;52.198;9.904;2023-04-26T10:49:43;100993.56;;;9.98;48.47
16255;BME280;8235;52.198;9.904;2023-04-26T10:52:11;100995.63;;;9.93;47.97
16255;BME280;8235;52.198;9.904;2023-04-26T10:54:53;100996.56;;;9.92;48.64
16255;BME280;8235;52.198;9.904;2023-04-26T10:57:21;101003.53;;;9.95;48.95
16255;BME280;8235;52.198;9.904;2023-04-26T11:00:27;101001.56;;;9.98;49.76
16255;BME280;8235;52.198;9.904;2023-04-26T11:03:05;100993.56;;;9.98;49.51
16255;BME280;8235;52.198;9.904;2023-04-26T11:08:28;100990.13;;;9.96;49.32
16255;BME280;8235;52.198;9.904;2023-04-26T11:11:06;100984.97;;;9.93;48.31
16255;BME280;8235;52.198;9.904;2023-04-26T11:13:35;100991.94;;;9.96;47.76
16255;BME280;8235;52.198;9.904;2023-04-26T11:16:04;100988.34;;;9.97;46.32
16255;BME280;8235;52.198;9.904;2023-04-26T11:18:31;100993.81;;;10.09;46.49
16255;BME280;8235;52.198;9.904;2023-04-26T11:20:59;100985.00;;;10.25;46.38
16255;BME280;8235;52.198;9.904;2023-04-26T11:23:28;100984.97;;;10.40;45.58
16255;BME280;8235;52.198;9.904;2023-04-26T11:25:56;100983.63;;;10.49;44.89
16255;BME280;8235;52.198;9.904;2023-04-26T11:28:23;100981.56;;;10.54;43.94
16255;BME280;8235;52.198;9.904;2023-04-26T11:30:49;100981.34;;;10.57;43.91
16255;BME280;8235;52.198;9.904;2023-04-26T11:33:18;100985.94;;;10.55;43.39
16255;BME280;8235;52.198;9.904;2023-04-26T11:35:47;100985.25;;;10.52;43.61
16255;BME280;8235;52.198;9.904;2023-04-26T11:38:14;100986.28;;;10.49;43.48
16255;BME280;8235;52.198;9.904;2023-04-26T11:40:41;100985.41;;;10.49;43.62
16255;BME280;8235;52.198;9.904;2023-04-26T11:43:08;100991.50;;;10.51;44.10
16255;BME280;8235;52.198;9.904;2023-04-26T11:45:37;100986.78;;;10.56;44.41
16255;BME280;8235;52.198;9.904;2023-04-26T11:48:05;100987.34;;;10.61;45.06
16255;BME280;8235;52.198;9.904;2023-04-26T11:50:35;100992.50;;;10.64;45.12
16255;BME280;8235;52.198;9.904;2023-04-26T11:53:04;100987.78;;;10.69;45.28
16255;BME280;8235;52.198;9.904;2023-04-26T11:55:32;100991.22;;;10.71;45.09
16255;BME280;8235;52.198;9.904;2023-04-26T11:58:00;100989.25;;;10.74;45.51
16255;BME280;8235;52.198;9.904;2023-04-26T12:00:27;100997.25;;;10.74;45.94
16255;BME280;8235;52.198;9.904;2023-04-26T12:02:54;100991.03;;;10.74;45.68
16255;BME280;8235;52.198;9.904;2023-04-26T12:05:25;100995.19;;;10.64;45.16
16255;BME280;8235;52.198;9.904;2023-04-26T12:07:55;100995.72;;;10.55;45.61
16255;BME280;8235;52.198;9.904;2023-04-26T12:10:24;100999.16;;;10.57;46.31
16255;BME280;8235;52.198;9.904;2023-04-26T12:12:52;100993.47;;;10.63;46.88
16255;BME280;8235;52.198;9.904;2023-04-26T12:15:22;100995.78;;;10.69;46.47
16255;BME280;8235;52.198;9.904;2023-04-26T12:17:57;100994.75;;;10.71;46.12
16255;BME280;8235;52.198;9.904;2023-04-26T12:20:28;100994.84;;;10.70;45.06
16255;BME280;8235;52.198;9.904;2023-04-26T12:23:02;100997.66;;;10.67;45.01
16255;BME280;8235;52.198;9.904;2023-04-26T12:25:30;100996.03;;;10.64;44.86
16255;BME280;8235;52.198;9.904;2023-04-26T12:27:56;101001.53;;;10.61;44.47
16255;BME280;8235;52.198;9.904;2023-04-26T12:30:25;100992.69;;;10.61;44.86
16255;BME280;8235;52.198;9.904;2023-04-26T12:32:51;101001.81;;;10.57;44.88
16255;BME280;8235;52.198;9.904;2023-04-26T12:35:18;100995.34;;;10.61;45.09
16255;BME280;8235;52.198;9.904;2023-04-26T12:37:44;100987.88;;;10.67;45.37
16255;BME280;8235;52.198;9.904;2023-04-26T12:40:13;100984.88;;;10.73;45.04
16255;BME280;8235;52.198;9.904;2023-04-26T12:42:40;100986.88;;;10.84;45.21
16255;BME280;8235;52.198;9.904;2023-04-26T12:45:07;100987.09;;;10.95;44.62
16255;BME280;8235;52.198;9.904;2023-04-26T12:47:34;100987.69;;;11.00;44.29
16255;BME280;8235;52.198;9.904;2023-04-26T12:50:00;100986.56;;;11.04;43.85
16255;BME280;8235;52.198;9.904;2023-04-26T12:52:27;100982.19;;;11.03;42.90
16255;BME280;8235;52.198;9.904;2023-04-26T12:54:53;100976.66;;;11.06;42.87
16255;BME280;8235;52.198;9.904;2023-04-26T12:57:22;100978.00;;;11.13;42.52
16255;BME280;8235;52.198;9.904;2023-04-26T12:59:48;100979.06;;;11.25;42.47
16255;BME280;8235;52.198;9.904;2023-04-26T13:02:15;100977.66;;;11.34;41.93
16255;BME280;8235;52.198;9.904;2023-04-26T13:04:42;100975.66;;;11.37;41.29
16255;BME280;8235;52.198;9.904;2023-04-26T13:07:08;100974.25;;;11.46;41.30
16255;BME280;8235;52.198;9.904;2023-04-26T13:09:35;100976.31;;;11.55;41.04
16255;BME280;8235;52.198;9.904;2023-04-26T13:12:02;100972.25;;;11.64;40.79
16255;BME280;8235;52.198;9.904;2023-04-26T13:14:30;100971.41;;;11.77;40.23
16255;BME280;8235;52.198;9.904;2023-04-26T13:16:56;100963.66;;;11.87;40.17